Time;durP1;ratioP1;P1;durP2;ratioP2;P2;SDS_P1;SDS_P2;PMS_P1;PMS_P2;Temp;Humidity;BMP_temperature;BMP_pressure;BME280_temperature;BME280_humidity;BME280_pressure;Samples;Min_cycle;Max_cycle;Signal;HPM_P1;HPM_P2
2022/07/29 00:01:56;;;;;;;15.40;10.73;;;;;;;23.07;69.47;100756.72;4848493;29;20054;-57
2022/07/29 00:04:28;;;;;;;16.27;10.70;;;;;;;23.04;69.29;100746.25;4848446;29;20061;-57
2022/07/29 00:06:59;;;;;;;18.13;10.43;;;;;;;23.07;69.95;100750.53;4848137;29;20353;-55
2022/07/29 00:09:29;;;;;;;20.93;10.53;;;;;;;23.15;69.47;100751.75;4848389;29;20054;-56
2022/07/29 00:12:02;;;;;;;27.90;11.63;;;;;;;23.28;70.54;100748.34;4848132;29;20066;-57
2022/07/29 00:14:32;;;;;;;18.77;10.70;;;;;;;23.35;69.47;100741.69;4848213;29;20118;-56
2022/07/29 00:17:03;;;;;;;21.93;10.13;;;;;;;23.48;69.52;100747.97;4848346;29;20062;-57
2022/07/29 00:19:36;;;;;;;21.07;10.37;;;;;;;23.65;68.47;100747.75;4848118;29;20118;-57
2022/07/29 00:22:06;;;;;;;28.20;10.33;;;;;;;;;;4848181;29;20118;-57
2022/07/29 00:24:36;;;;;;;14.70;9.73;;;;;;;23.72;68.39;100745.56;4848165;29;20061;-55
2022/07/29 00:27:07;;;;;;;14.27;10.00;;;;;;;23.94;68.14;100739.75;4848226;29;20241;-57
2022/07/29 00:29:37;;;;;;;13.43;9.60;;;;;;;24.11;67.18;100744.84;4845264;29;20222;-57
2022/07/29 00:32:09;;;;;;;17.00;9.73;;;;;;;24.19;67.01;100740.78;4829593;29;20054;-55
2022/07/29 00:37:28;;;;;;;40.27;11.03;;;;;;;24.28;66.77;100749.03;4829788;29;20054;-57
2022/07/29 00:39:59;;;;;;;13.97;10.10;;;;;;;24.30;66.17;100743.63;4828096;29;20371;-56
2022/07/29 00:42:29;;;;;;;13.90;9.73;;;;;;;24.28;65.56;100750.88;4829163;29;20080;-58
2022/07/29 00:45:00;;;;;;;15.37;10.07;;;;;;;24.45;65.90;100747.97;4829359;29;20086;-56
2022/07/29 00:47:31;;;;;;;17.03;9.93;;;;;;;24.58;66.02;100756.00;4829071;29;20050;-57
2022/07/29 00:50:03;;;;;;;12.67;9.27;;;;;;;24.70;65.83;100762.34;4829188;29;20054;-59
2022/07/29 00:52:34;;;;;;;13.07;9.57;;;;;;;24.74;65.20;100758.53;4826962;29;20255;-57
2022/07/29 00:55:07;;;;;;;13.33;9.80;;;;;;;24.77;64.76;100762.81;4829538;29;20110;-57
2022/07/29 00:57:38;;;;;;;17.17;9.83;;;;;;;24.78;64.71;100746.66;4827489;29;20199;-56
2022/07/29 01:00:11;;;;;;;14.57;10.63;;;;;;;24.88;64.79;100745.06;4829294;29;20196;-58
2022/07/29 01:02:42;;;;;;;12.30;9.60;;;;;;;24.93;63.86;100748.25;4828003;29;20216;-57
2022/07/29 01:05:14;;;;;;;14.57;9.53;;;;;;;24.86;64.10;100752.34;4829116;29;20118;-57
2022/07/29 01:07:46;;;;;;;17.40;9.70;;;;;;;24.92;64.42;100738.53;4829669;29;20404;-57
2022/07/29 01:10:18;;;;;;;15.80;10.93;;;;;;;25.01;64.37;100741.53;4829587;29;20288;-57
2022/07/29 01:12:50;;;;;;;19.70;12.03;;;;;;;25.01;64.07;100722.81;4829856;29;20061;-57
2022/07/29 01:15:21;;;;;;;15.33;9.90;;;;;;;25.12;62.64;100747.00;4829749;29;20134;-58
2022/07/29 01:18:00;;;;;;;17.73;10.70;;;;;;;24.43;61.83;100695.56;4825034;29;20054;-56
2022/07/29 01:20:49;;;;;;;18.43;10.27;;;;;;;24.84;63.93;100743.56;4827623;29;20046;-57
2022/07/29 01:23:54;;;;;;;15.32;9.98;;;;;;;24.97;62.71;100733.72;4829841;29;20141;-57
2022/07/29 01:26:41;;;;;;;17.80;10.07;;;;;;;25.06;63.34;100731.38;4829423;29;20054;-56
2022/07/29 01:29:24;;;;;;;41.97;11.83;;;;;;;25.10;62.72;100724.88;4827861;29;20058;-56
2022/07/29 01:32:07;;;;;;;23.73;10.77;;;;;;;25.22;63.28;100721.38;4828517;29;20071;-56
2022/07/29 01:35:03;;;;;;;17.47;10.63;;;;;;;25.12;61.01;100710.41;4828306;29;20050;-58
2022/07/29 01:37:41;;;;;;;13.67;10.47;;;;;;;25.45;62.45;100726.91;4828997;29;20050;-56
2022/07/29 01:40:18;;;;;;;17.20;10.83;;;;;;;25.45;60.29;100705.50;4828814;29;20327;-57
2022/07/29 01:42:56;;;;;;;35.70;11.27;;;;;;;25.40;60.24;100725.41;4829626;29;20050;-57
2022/07/29 01:45:36;;;;;;;27.27;11.45;;;;;;;25.69;61.12;100719.78;4829026;29;20133;-56
2022/07/29 01:48:13;;;;;;;14.43;10.70;;;;;;;25.82;58.36;100725.94;4828831;29;20074;-58
2022/07/29 01:50:50;;;;;;;14.27;10.27;;;;;;;25.53;57.36;100724.53;4828514;29;20072;-57
2022/07/29 01:53:28;;;;;;;15.10;10.37;;;;;;;25.46;60.59;100717.91;4829082;29;20081;-58
2022/07/29 01:56:08;;;;;;;16.63;10.83;;;;;;;25.61;60.71;100714.16;4828553;29;20086;-56
2022/07/29 01:58:41;;;;;;;18.27;11.90;;;;;;;25.59;60.46;100700.00;4828751;29;20121;-56
2022/07/29 02:01:16;;;;;;;14.20;10.40;;;;;;;25.49;60.32;100677.56;4828688;29;20331;-57
2022/07/29 02:03:48;;;;;;;18.40;11.33;;;;;;;25.78;62.04;100697.69;4828597;29;20066;-58
2022/07/29 02:06:22;;;;;;;17.83;11.60;;;;;;;26.01;61.62;100688.00;4828733;29;20113;-57
2022/07/29 02:08:55;;;;;;;17.07;11.40;;;;;;;26.22;61.14;100696.25;4828887;29;20057;-57
2022/07/29 02:11:26;;;;;;;16.47;11.13;;;;;;;26.29;59.39;100711.88;4829057;29;20046;-58
2022/07/29 02:13:59;;;;;;;14.13;10.83;;;;;;;25.95;58.64;100709.03;4828677;29;20050;-57
2022/07/29 02:16:34;;;;;;;19.03;11.83;;;;;;;25.99;59.97;100710.50;4828329;29;20139;-55
2022/07/29 02:19:06;;;;;;;20.67;11.67;;;;;;;25.71;58.96;100712.50;4828189;29;20363;-57
2022/07/29 02:21:37;;;;;;;18.03;10.70;;;;;;;25.74;59.91;100719.47;4828506;29;20343;-57
2022/07/29 02:24:10;;;;;;;19.93;11.37;;;;;;;25.98;60.01;100714.13;4828331;29;20064;-57
2022/07/29 02:26:43;;;;;;;15.67;10.50;;;;;;;26.27;61.19;100713.81;4828329;29;20050;-58
2022/07/29 02:29:16;;;;;;;19.00;12.07;;;;;;;26.37;58.66;100714.81;4828176;29;20069;-57
2022/07/29 02:31:49;;;;;;;16.77;11.43;;;;;;;26.41;60.40;100721.63;4827303;29;20066;-57
2022/07/29 02:34:22;;;;;;;18.73;11.60;;;;;;;26.48;58.37;100717.53;4828331;29;20046;-56
2022/07/29 02:36:53;;;;;;;17.30;11.57;;;;;;;26.09;57.71;100716.88;4828463;29;20420;-57
2022/07/29 02:39:26;;;;;;;16.07;11.83;;;;;;;25.94;59.38;100701.97;4828419;29;20066;-57
2022/07/29 02:42:03;;;;;;;18.03;12.63;;;;;;;26.15;61.23;100711.06;4828361;29;20050;-56
2022/07/29 02:44:34;;;;;;;24.27;12.57;;;;;;;26.63;61.65;100711.06;4828128;29;20062;-55
2022/07/29 02:47:12;;;;;;;19.13;12.47;;;;;;;26.84;59.52;100707.69;4827864;29;20069;-56
2022/07/29 02:49:51;;;;;;;23.42;13.80;;;;;;;26.95;58.63;100713.03;4828335;29;20070;-55
2022/07/29 02:52:28;;;;;;;24.67;13.00;;;;;;;27.07;58.64;100709.41;4828361;29;20069;-57
2022/07/29 02:55:03;;;;;;;42.10;14.47;;;;;;;27.23;58.75;100697.50;4827745;29;20066;-57
2022/07/29 02:57:38;;;;;;;32.23;13.43;;;;;;;27.21;58.53;100700.31;4827821;29;20544;-57
2022/07/29 03:00:27;;;;;;;19.93;11.43;;;;;;;27.23;58.40;100686.75;4827831;29;20088;-56
2022/07/29 03:03:05;;;;;;;22.20;12.60;;;;;;;27.28;59.64;100679.19;4828003;29;20134;-55
2022/07/29 03:05:36;;;;;;;18.20;12.90;;;;;;;27.11;57.03;100680.53;4827752;29;20119;-57
2022/07/29 03:08:10;;;;;;;17.50;12.57;;;;;;;26.86;58.31;100678.94;4827809;29;20076;-56
2022/07/29 03:10:45;;;;;;;23.00;13.47;;;;;;;26.82;59.70;100666.72;4827702;29;20076;-57
2022/07/29 03:13:16;;;;;;;19.07;12.43;;;;;;;27.05;59.41;100673.81;4827576;29;20066;-56
2022/07/29 03:15:48;;;;;;;26.00;13.60;;;;;;;27.23;59.46;100667.97;4827689;29;20066;-58
2022/07/29 03:18:21;;;;;;;22.87;13.57;;;;;;;27.40;58.99;100680.03;4827552;29;20126;-57
2022/07/29 03:20:52;;;;;;;19.73;13.13;;;;;;;27.49;58.16;100677.47;4827763;29;20125;-58
2022/07/29 03:23:23;;;;;;;17.67;13.27;;;;;;;27.61;57.86;100680.13;4827818;29;20082;-56
2022/07/29 03:25:54;;;;;;;23.87;13.00;;;;;;;27.62;56.52;100677.34;4827796;29;20397;-57
2022/07/29 03:28:27;;;;;;;22.57;14.00;;;;;;;27.70;57.92;100674.00;4827543;29;20259;-55
2022/07/29 03:30:57;;;;;;;20.90;13.40;;;;;;;27.81;58.24;100684.75;4826816;29;20117;-55
2022/07/29 03:33:30;;;;;;;28.33;14.23;;;;;;;27.88;58.86;100677.03;4826750;29;20081;-56
2022/07/29 03:36:02;;;;;;;22.70;13.30;;;;;;;27.90;57.34;100675.94;4826864;29;20076;-56
2022/07/29 03:38:35;;;;;;;20.27;13.27;;;;;;;27.87;57.41;100675.34;4826876;29;20130;-54
2022/07/29 03:41:11;;;;;;;18.27;13.70;;;;;;;27.87;58.60;100654.72;4825495;29;20339;-58
2022/07/29 03:43:43;;;;;;;21.30;13.87;;;;;;;27.87;56.19;100670.84;4826918;29;20058;-58
2022/07/29 03:46:19;;;;;;;28.47;14.27;;;;;;;28.02;56.69;100662.50;4827169;29;20472;-55
2022/07/29 03:48:57;;;;;;;20.17;12.97;;;;;;;27.69;56.84;100661.59;4827303;29;20374;-58
2022/07/29 03:51:28;;;;;;;18.80;13.10;;;;;;;27.51;58.23;100627.22;4827023;29;20065;-56
2022/07/29 03:54:03;;;;;;;20.90;13.67;;;;;;;27.79;57.82;100662.53;4826419;29;20093;-56
2022/07/29 03:56:45;;;;;;;19.17;13.43;;;;;;;27.97;57.78;100644.06;4826123;29;20070;-57
2022/07/29 03:59:19;;;;;;;20.63;13.57;;;;;;;28.09;58.04;100655.63;4827083;29;20049;-57
2022/07/29 04:01:50;;;;;;;21.73;14.00;;;;;;;28.11;58.35;100645.59;4826774;29;20058;-57
2022/07/29 04:04:23;;;;;;;24.20;15.10;;;;;;;27.91;58.48;100637.38;4826185;29;20054;-57
2022/07/29 04:06:55;;;;;;;30.40;15.57;;;;;;;27.75;59.46;100628.84;4826626;29;20072;-56
2022/07/29 04:09:26;;;;;;;17.03;12.90;;;;;;;27.83;58.91;100637.19;4826521;29;20065;-56
2022/07/29 04:11:57;;;;;;;18.47;14.27;;;;;;;27.76;58.56;100630.56;4826946;29;20117;-58
2022/07/29 04:14:33;;;;;;;24.27;15.07;;;;;;;27.78;60.23;100623.22;4826048;29;20105;-57
2022/07/29 04:17:05;;;;;;;22.93;13.37;;;;;;;27.90;59.71;100622.22;4826535;29;20077;-60
2022/07/29 04:19:37;;;;;;;23.70;13.90;;;;;;;27.99;59.87;100604.50;4825316;29;20095;-57
2022/07/29 04:22:08;;;;;;;19.97;14.70;;;;;;;28.12;58.06;100623.13;4826605;29;20054;-57
2022/07/29 04:24:39;;;;;;;22.67;14.50;;;;;;;27.98;58.66;100629.63;4825507;29;20050;-56
2022/07/29 04:27:13;;;;;;;25.77;15.20;;;;;;;27.78;58.28;100627.75;4826776;29;20093;-57
2022/07/29 04:29:43;;;;;;;32.27;15.23;;;;;;;27.60;59.43;100630.97;4826378;29;20366;-56
2022/07/29 04:32:26;;;;;;;26.83;16.80;;;;;;;27.43;59.82;100624.31;4826801;29;20322;-57
2022/07/29 04:35:01;;;;;;;24.23;14.67;;;;;;;27.30;60.49;100618.22;4826100;29;20113;-56
2022/07/29 04:37:31;;;;;;;25.17;16.70;;;;;;;27.49;61.18;100618.44;4826522;29;20062;-56
2022/07/29 04:40:02;;;;;;;28.50;15.87;;;;;;;27.90;60.17;100616.84;4825678;29;20066;-58
2022/07/29 04:42:32;;;;;;;23.60;14.47;;;;;;;28.11;58.54;100621.44;4826167;29;20069;-58
2022/07/29 04:45:15;;;;;;;34.03;27.97;;;;;;;28.34;58.72;100620.31;4824978;29;20117;-56
2022/07/29 04:47:51;;;;;;;50.87;22.20;;;;;;;28.44;58.46;100619.53;4824856;29;20066;-55
2022/07/29 04:50:23;;;;;;;28.13;19.40;;;;;;;28.32;58.65;100610.69;4826088;29;20062;-56
2022/07/29 04:52:54;;;;;;;26.43;16.03;;;;;;;28.16;58.69;100621.91;4826053;29;20127;-56
2022/07/29 04:55:24;;;;;;;28.43;16.83;;;;;;;27.90;59.09;100621.38;4825891;29;20346;-58
2022/07/29 04:57:55;;;;;;;51.47;20.30;;;;;;;27.70;60.68;100609.59;4826257;29;20230;-56
2022/07/29 05:00:27;;;;;;;22.47;16.33;;;;;;;27.46;60.57;100607.97;4826393;29;20078;-57
2022/07/29 05:03:02;;;;;;;22.73;14.80;;;;;;;27.39;60.79;100604.06;4825201;29;20074;-56
2022/07/29 05:05:34;;;;;;;24.00;15.53;;;;;;;27.42;61.23;100603.81;4825598;29;20131;-56
2022/07/29 05:08:05;;;;;;;23.77;15.40;;;;;;;27.49;61.00;100610.38;4825934;29;20066;-55
2022/07/29 05:10:37;;;;;;;23.30;15.27;;;;;;;27.42;60.22;100611.84;4825747;29;20234;-57
2022/07/29 05:13:08;;;;;;;32.43;15.23;;;;;;;27.11;61.58;100566.03;4826130;29;20050;-57
2022/07/29 05:15:39;;;;;;;30.77;14.33;;;;;;;27.39;60.97;100612.13;4825534;29;20074;-56
2022/07/29 05:18:10;;;;;;;25.87;15.37;;;;;;;27.33;61.90;100612.59;4825842;29;20077;-57
2022/07/29 05:20:42;;;;;;;74.40;17.77;;;;;;;27.26;62.53;100616.78;4825869;29;20089;-55
2022/07/29 05:23:14;;;;;;;37.63;15.97;;;;;;;27.20;63.71;100611.91;4824496;29;20096;-56
2022/07/29 05:25:46;;;;;;;24.30;14.63;;;;;;;27.17;63.58;100618.34;4824772;29;20231;-56
2022/07/29 05:28:16;;;;;;;33.23;16.03;;;;;;;27.06;63.36;100627.25;4825711;29;20046;-56
2022/07/29 05:30:48;;;;;;;56.93;16.80;;;;;;;27.04;64.63;100629.19;4825830;29;20054;-55
2022/07/29 05:33:19;;;;;;;31.80;15.03;;;;;;;27.00;64.34;100621.50;4825456;29;20058;-57
2022/07/29 05:36:07;;;;;;;27.10;14.30;;;;;;;26.86;64.31;100615.44;4825764;29;20097;-56
2022/07/29 05:38:38;;;;;;;31.07;15.27;;;;;;;26.80;64.23;100615.91;4825072;29;20080;-56
2022/07/29 05:41:08;;;;;;;30.27;14.77;;;;;;;26.75;64.27;100617.25;4825206;29;20337;-54
2022/07/29 05:43:39;;;;;;;22.93;13.30;;;;;;;26.68;64.46;100612.38;4825174;29;20146;-56
2022/07/29 05:46:10;;;;;;;21.50;13.53;;;;;;;26.59;63.96;100602.38;4825404;29;20062;-57
2022/07/29 05:48:40;;;;;;;29.90;14.17;;;;;;;26.46;65.19;100606.97;4825350;29;20066;-54
2022/07/29 05:51:13;;;;;;;21.83;13.13;;;;;;;26.39;65.59;100603.03;4825306;29;20070;-57
2022/07/29 05:53:44;;;;;;;22.40;13.50;;;;;;;26.30;66.02;100601.06;4825220;29;20312;-57
2022/07/29 05:56:15;;;;;;;18.03;12.70;;;;;;;26.23;66.70;100598.00;4825251;29;20058;-56
2022/07/29 05:58:46;;;;;;;21.17;12.67;;;;;;;26.09;67.23;100599.06;4823980;29;20065;-57
2022/07/29 06:01:16;;;;;;;31.37;15.27;;;;;;;25.97;67.12;100597.31;4823579;29;20113;-56
2022/07/29 06:03:47;;;;;;;18.30;13.23;;;;;;;25.86;67.48;100597.25;4824262;29;20066;-57
2022/07/29 06:06:19;;;;;;;24.33;12.87;;;;;;;25.77;67.74;100588.91;4826691;29;20204;-55
2022/07/29 06:08:51;;;;;;;26.47;12.63;;;;;;;25.81;67.97;100595.75;4828383;29;20377;-56
2022/07/29 06:11:21;;;;;;;29.87;13.33;;;;;;;25.82;68.60;100597.47;4828665;29;20066;-56
2022/07/29 06:13:52;;;;;;;31.63;12.00;;;;;;;25.80;67.96;100594.03;4828799;29;20069;-56
2022/07/29 06:16:23;;;;;;;78.33;15.33;;;;;;;25.76;68.10;100595.25;4828455;29;20115;-57
2022/07/29 06:18:59;;;;;;;33.83;12.43;;;;;;;25.73;68.29;100597.28;4828867;29;20064;-56
2022/07/29 06:21:31;;;;;;;37.83;13.10;;;;;;;25.77;68.65;100604.13;4828494;29;20122;-56
2022/07/29 06:24:02;;;;;;;17.93;11.17;;;;;;;25.76;68.70;100603.28;4828598;29;20315;-56
2022/07/29 06:26:33;;;;;;;31.00;11.80;;;;;;;25.79;67.86;100608.41;4828006;29;20153;-57
2022/07/29 06:29:08;;;;;;;19.27;11.27;;;;;;;25.76;67.84;100603.28;4828060;29;20058;-57
2022/07/29 06:31:39;;;;;;;34.87;12.37;;;;;;;25.71;67.66;100608.13;4828121;29;20113;-56
2022/07/29 06:34:10;;;;;;;21.67;10.90;;;;;;;25.61;67.95;100604.44;4828058;29;20066;-56
2022/07/29 06:36:43;;;;;;;18.00;10.77;;;;;;;25.49;68.49;100606.19;4827949;29;20300;-56
2022/07/29 06:39:14;;;;;;;31.70;12.20;;;;;;;25.31;68.13;100600.34;4828346;29;20065;-57
2022/07/29 06:41:50;;;;;;;24.27;11.13;;;;;;;25.07;68.36;100596.75;4828022;29;20121;-56
2022/07/29 06:44:20;;;;;;;48.63;12.23;;;;;;;24.94;69.00;100594.94;4827857;29;20522;-56
2022/07/29 06:46:51;;;;;;;26.07;11.00;;;;;;;24.82;69.48;100603.84;4827960;29;20066;-55
2022/07/29 06:49:23;;;;;;;21.40;11.53;;;;;;;24.70;70.07;100596.69;4827336;29;20088;-55
2022/07/29 06:51:55;;;;;;;20.93;10.40;;;;;;;24.66;70.44;100595.19;4827938;29;20062;-56
2022/07/29 06:54:26;;;;;;;23.23;12.57;;;;;;;24.67;70.24;100591.56;4827932;29;20070;-56
2022/07/29 06:56:56;;;;;;;49.57;14.00;;;;;;;24.57;70.38;100590.50;4828155;29;20070;-55
2022/07/29 06:59:27;;;;;;;15.63;10.87;;;;;;;24.51;70.33;100597.97;4828516;29;20089;-57
2022/07/29 07:02:04;;;;;;;19.43;12.37;;;;;;;24.47;70.62;100596.47;4827854;29;20065;-56
2022/07/29 07:04:35;;;;;;;22.40;11.17;;;;;;;24.37;70.24;100600.72;4827710;29;20357;-56
2022/07/29 07:07:07;;;;;;;19.30;11.07;;;;;;;24.35;70.98;100599.94;4827374;29;20070;-54
2022/07/29 07:09:38;;;;;;;25.67;10.63;;;;;;;24.35;71.08;100599.94;4827424;29;20125;-57
2022/07/29 07:12:09;;;;;;;23.50;11.33;;;;;;;24.30;70.96;100599.41;4827305;29;20310;-56
2022/07/29 07:14:42;;;;;;;24.97;11.60;;;;;;;24.22;71.06;100591.09;4826307;29;20476;-56
2022/07/29 07:17:12;;;;;;;28.87;13.03;;;;;;;24.13;71.52;100597.03;4825836;29;20047;-56
2022/07/29 07:19:43;;;;;;;25.13;14.33;;;;;;;24.09;72.49;100602.59;4826514;29;20054;-57
2022/07/29 07:22:15;;;;;;;26.47;12.30;;;;;;;24.08;72.60;100600.84;4826413;29;20338;-57
2022/07/29 07:24:46;;;;;;;27.27;11.53;;;;;;;24.03;72.40;100600.31;4825978;29;20049;-56
2022/07/29 07:27:16;;;;;;;36.27;12.23;;;;;;;24.03;72.54;100589.63;4827564;29;20084;-56
2022/07/29 07:29:47;;;;;;;28.30;11.87;;;;;;;24.09;72.78;100591.91;4826846;29;20063;-56
2022/07/29 07:32:18;;;;;;;23.17;12.27;;;;;;;24.05;72.17;100590.41;4827242;29;20105;-53
2022/07/29 07:34:48;;;;;;;26.13;11.53;;;;;;;24.03;72.54;100591.47;4827582;29;20053;-54
2022/07/29 07:37:21;;;;;;;22.30;11.50;;;;;;;24.05;72.57;100589.53;4826886;29;20090;-56
2022/07/29 07:39:51;;;;;;;20.10;11.87;;;;;;;23.98;72.56;100583.75;4827346;29;20085;-56
2022/07/29 07:42:22;;;;;;;23.63;11.83;;;;;;;23.94;72.65;100584.06;4827188;29;20104;-56
2022/07/29 07:44:53;;;;;;;22.17;13.87;;;;;;;23.84;72.57;100575.84;4827134;29;20083;-54
2022/07/29 07:47:42;;;;;;;22.90;13.55;;;;;;;23.47;72.71;100527.56;4826923;29;20073;-54
2022/07/29 07:50:14;;;;;;;24.20;12.67;;;;;;;23.76;73.04;100584.34;4826867;29;20054;-55
2022/07/29 07:52:54;;;;;;;29.00;12.87;;;;;;;23.65;72.69;100587.69;4826707;29;20127;-55
2022/07/29 07:55:25;;;;;;;28.60;13.60;;;;;;;23.46;72.76;100568.50;4826766;29;20042;-56
2022/07/29 07:57:56;;;;;;;19.60;12.20;;;;;;;23.53;72.66;100585.81;4826897;29;20327;-56
2022/07/29 08:00:27;;;;;;;18.87;12.27;;;;;;;23.47;72.63;100580.91;4826967;29;20058;-55
2022/07/29 08:02:58;;;;;;;38.57;12.87;;;;;;;23.43;72.86;100582.06;4827066;29;20109;-54
2022/07/29 08:05:29;;;;;;;24.27;12.10;;;;;;;23.37;73.02;100582.47;4826820;29;20054;-55
2022/07/29 08:08:01;;;;;;;28.63;12.90;;;;;;;23.33;73.30;100578.28;4826751;29;20093;-56
2022/07/29 08:13:20;;;;;;;27.40;12.80;;;;;;;23.24;73.29;100572.59;4826858;29;20577;-55
2022/07/29 08:15:57;;;;;;;23.80;12.33;;;;;;;23.15;73.40;100567.00;4826540;29;20058;-56
2022/07/29 08:18:28;;;;;;;24.40;12.10;;;;;;;23.18;73.31;100578.28;4826054;29;20098;-56
2022/07/29 08:20:59;;;;;;;24.60;12.13;;;;;;;23.19;73.15;100579.19;4826150;29;20287;-56
2022/07/29 08:23:38;;;;;;;23.07;12.23;;;;;;;23.18;72.85;100583.63;4826420;29;20054;-55
2022/07/29 08:26:17;;;;;;;21.13;11.47;;;;;;;23.06;73.12;100578.22;4826061;29;20261;-58
2022/07/29 08:28:50;;;;;;;107.67;18.20;;;;;;;22.80;73.71;100572.69;4826283;29;20047;-56
2022/07/29 08:31:20;;;;;;;20.00;12.97;;;;;;;22.72;74.30;100591.84;4826321;29;20054;-58
2022/07/29 08:33:51;;;;;;;23.27;12.77;;;;;;;22.50;74.57;100570.97;4825954;29;20066;-59
2022/07/29 08:36:22;;;;;;;21.17;12.50;;;;;;;22.53;75.22;100585.91;4825060;29;20061;-54
2022/07/29 08:38:54;;;;;;;26.90;13.30;;;;;;;22.42;75.36;100577.75;4826541;29;20591;-55
2022/07/29 08:41:25;;;;;;;24.93;13.10;;;;;;;22.40;76.25;100589.31;4826965;29;20346;-53
2022/07/29 08:43:57;;;;;;;29.57;13.30;;;;;;;22.38;76.09;100598.34;4826190;29;20056;-57
2022/07/29 08:46:27;;;;;;;27.27;12.73;;;;;;;22.29;76.34;100591.78;4825948;29;20122;-56
2022/07/29 08:48:58;;;;;;;24.50;13.03;;;;;;;22.19;76.55;100590.59;4826013;29;20073;-56
2022/07/29 08:51:29;;;;;;;23.23;13.90;;;;;;;22.09;77.16;100586.75;4824650;29;20072;-56
2022/07/29 08:54:02;;;;;;;30.60;12.70;;;;;;;22.04;77.37;100583.50;4826438;29;20229;-53
2022/07/29 08:56:32;;;;;;;29.00;13.40;;;;;;;21.97;77.54;100583.03;4825752;29;20065;-55
2022/07/29 08:59:06;;;;;;;52.90;15.17;;;;;;;21.93;78.33;100585.00;4826238;29;20062;-53
2022/07/29 09:01:42;;;;;;;27.93;13.07;;;;;;;21.92;78.52;100585.94;4825248;29;20280;-55
2022/07/29 09:04:21;;;;;;;34.47;14.70;;;;;;;21.90;78.37;100590.50;4826088;29;20338;-55
2022/07/29 09:06:56;;;;;;;32.97;12.80;;;;;;;21.81;78.83;100582.19;4825557;29;20062;-56
2022/07/29 09:09:28;;;;;;;26.50;12.80;;;;;;;21.77;79.33;100586.84;4824184;29;20113;-57
2022/07/29 09:12:03;;;;;;;27.87;13.63;;;;;;;21.74;79.58;100600.28;4825920;29;20361;-56
2022/07/29 09:14:34;;;;;;;23.03;13.23;;;;;;;21.71;79.74;100608.47;4825752;29;20054;-55
2022/07/29 09:17:04;;;;;;;27.80;13.93;;;;;;;21.62;80.05;100599.22;4825498;29;20054;-55
2022/07/29 09:19:38;;;;;;;37.93;15.47;;;;;;;21.57;80.36;100600.41;4825651;29;20333;-55
2022/07/29 09:22:29;;;;;;;27.03;16.47;;;;;;;21.53;80.43;100605.91;4825377;29;20298;-55
2022/07/29 09:25:02;;;;;;;21.77;13.23;;;;;;;21.46;80.60;100599.22;4824648;29;20082;-55
2022/07/29 09:27:35;;;;;;;24.53;13.37;;;;;;;21.40;80.71;100602.22;4824978;29;20311;-56
2022/07/29 09:30:10;;;;;;;34.97;13.73;;;;;;;21.42;80.64;100608.31;4825618;29;20355;-55
2022/07/29 09:33:00;;;;;;;26.77;12.87;;;;;;;21.37;80.51;100599.72;4824347;29;20310;-55
2022/07/29 09:35:32;;;;;;;21.67;11.83;;;;;;;21.35;80.41;100617.56;4825451;29;20507;-56
2022/07/29 09:38:13;;;;;;;23.60;12.10;;;;;;;21.29;80.44;100604.59;4825415;29;20526;-57
2022/07/29 09:40:58;;;;;;;22.00;12.47;;;;;;;21.21;80.84;100614.78;4827342;29;20330;-57
2022/07/29 09:43:35;;;;;;;44.03;14.17;;;;;;;21.10;80.85;100608.25;4828975;29;20304;-56
2022/07/29 09:46:15;;;;;;;22.47;11.90;;;;;;;21.00;81.17;100601.75;4828071;29;20311;-56
2022/07/29 09:48:46;;;;;;;31.40;12.83;;;;;;;20.93;81.63;100610.97;4827514;29;20326;-56
2022/07/29 09:51:20;;;;;;;32.10;13.20;;;;;;;20.88;81.80;100602.41;4827920;29;20537;-57
2022/07/29 09:54:25;;;;;;;26.03;13.17;;;;;;;20.79;81.99;100603.78;4828331;29;20330;-55
2022/07/29 09:56:57;;;;;;;30.15;12.85;;;;;;;20.73;82.48;100616.50;4827682;29;20325;-57
2022/07/29 09:59:28;;;;;;;25.43;12.97;;;;;;;20.66;82.67;100606.19;4828569;29;20125;-54
2022/07/29 10:02:00;;;;;;;34.23;14.10;;;;;;;20.57;82.81;100606.69;4827915;29;20314;-57
2022/07/29 10:04:41;;;;;;;21.90;13.33;;;;;;;20.55;83.45;100605.91;4828827;29;20576;-53
2022/07/29 10:07:12;;;;;;;28.03;13.47;;;;;;;20.44;83.47;100587.00;4828055;29;20342;-56
2022/07/29 10:09:54;;;;;;;43.43;14.33;;;;;;;20.52;83.57;100611.38;4828317;29;20589;-57
2022/07/29 10:12:27;;;;;;;30.50;13.23;;;;;;;20.48;84.08;100625.72;4828185;29;20367;-54
2022/07/29 10:14:58;;;;;;;57.10;13.67;;;;;;;20.44;83.95;100618.84;4828510;29;20292;-56
2022/07/29 10:17:30;;;;;;;22.90;12.13;;;;;;;20.36;84.49;100621.03;4828225;29;20295;-56
2022/07/29 10:20:04;;;;;;;25.67;12.03;;;;;;;20.33;84.58;100621.22;4828263;29;20305;-57
2022/07/29 10:22:43;;;;;;;25.27;12.80;;;;;;;20.28;84.88;100623.25;4827674;29;20298;-56
2022/07/29 10:25:23;;;;;;;22.07;13.37;;;;;;;20.15;85.28;100597.31;4828062;29;20304;-56
2022/07/29 10:27:56;;;;;;;24.43;12.53;;;;;;;20.22;85.58;100619.97;4827923;29;20320;-54
2022/07/29 10:30:28;;;;;;;22.37;11.63;;;;;;;20.19;85.41;100629.84;4827085;29;20307;-56
2022/07/29 10:33:17;;;;;;;18.37;11.80;;;;;;;20.26;85.66;100632.13;4828196;29;20533;-56
2022/07/29 10:36:10;;;;;;;22.70;12.38;;;;;;;20.24;85.67;100634.00;4826824;29;20319;-55
2022/07/29 10:38:53;;;;;;;21.33;12.70;;;;;;;20.22;85.39;100635.88;4826177;29;20076;-55
2022/07/29 10:41:57;;;;;;;42.97;14.17;;;;;;;20.22;85.34;100646.50;4828011;29;20329;-56
2022/07/29 10:44:30;;;;;;;28.23;14.83;;;;;;;20.14;85.62;100647.81;4827348;29;20279;-55
2022/07/29 10:47:01;;;;;;;32.40;19.00;;;;;;;20.13;85.97;100651.41;4827592;29;20430;-55
2022/07/29 10:49:32;;;;;;;36.33;17.57;;;;;;;20.10;86.11;100647.09;4826976;29;20350;-55
2022/07/29 10:52:05;;;;;;;31.67;18.60;;;;;;;20.03;86.49;100645.69;4825830;29;20287;-57
2022/07/29 10:54:47;;;;;;;36.33;16.30;;;;;;;20.00;87.00;100648.50;4826173;29;20311;-60
2022/07/29 10:57:20;;;;;;;26.30;15.13;;;;;;;20.02;87.18;100657.25;4827135;29;20287;-56
2022/07/29 11:00:32;;;;;;;25.77;15.17;;;;;;;20.05;87.56;100654.44;4827373;29;20287;-56
2022/07/29 11:03:02;;;;;;;24.37;13.17;;;;;;;20.08;87.32;100672.84;4826940;29;20342;-53
2022/07/29 11:05:56;;;;;;;23.37;12.47;;;;;;;20.09;87.37;100666.59;4826495;29;20311;-55
2022/07/29 11:08:30;;;;;;;18.63;12.87;;;;;;;20.06;87.21;100656.16;4826751;29;20638;-55
2022/07/29 11:11:40;;;;;;;19.67;12.50;;;;;;;20.05;87.09;100665.06;4827092;29;20529;-56
2022/07/29 11:14:17;;;;;;;24.47;14.97;;;;;;;19.98;87.18;100668.94;4827275;29;20283;-56
2022/07/29 11:17:07;;;;;;;23.37;14.73;;;;;;;19.93;87.34;100670.94;4827031;29;20296;-56
2022/07/29 11:19:42;;;;;;;28.63;14.73;;;;;;;19.83;87.70;100668.75;4826445;29;20284;-57
2022/07/29 11:22:34;;;;;;;20.27;14.13;;;;;;;19.84;88.08;100669.59;4826405;29;20319;-56
2022/07/29 11:25:18;;;;;;;26.17;16.07;;;;;;;19.80;88.11;100666.25;4826801;29;20634;-56
2022/07/29 11:28:16;;;;;;;26.33;13.80;;;;;;;19.88;88.01;100678.28;4825930;29;20320;-56
2022/07/29 11:30:54;;;;;;;26.50;14.20;;;;;;;19.80;88.10;100671.53;4825114;29;20517;-57
2022/07/29 11:33:32;;;;;;;21.17;13.60;;;;;;;19.66;88.57;100663.34;4826246;29;20867;-54
2022/07/29 11:36:23;;;;;;;19.80;13.50;;;;;;;19.70;88.80;100667.63;4825875;29;20299;-55
2022/07/29 11:39:27;;;;;;;35.13;14.03;;;;;;;19.71;88.93;100661.38;4826595;29;20348;-56
2022/07/29 11:42:19;;;;;;;;;;;;;;;19.72;89.08;100663.13;4827187;29;20319;-54
2022/07/29 11:45:06;;;;;;;23.43;12.00;;;;;;;19.73;89.05;100658.66;4826991;29;19999;-55
2022/07/29 11:48:01;;;;;;;20.57;14.07;;;;;;;19.69;89.12;100657.94;4825885;29;20307;-57
2022/07/29 11:50:54;;;;;;;23.53;14.73;;;;;;;19.64;89.23;100664.38;4825267;29;20546;-56